createdAt,value
2023-08-08T00:00:46.436Z,2.10
2023-08-08T00:03:15.773Z,2.00
2023-08-08T00:05:44.874Z,2.00
2023-08-08T00:08:13.969Z,1.90
2023-08-08T00:10:43.129Z,2.30
2023-08-08T00:13:12.397Z,2.40
2023-08-08T00:15:41.647Z,2.30
2023-08-08T00:18:10.852Z,2.30
2023-08-08T00:20:40.930Z,2.40
2023-08-08T00:23:10.042Z,2.60
2023-08-08T00:25:39.276Z,2.50
2023-08-08T00:28:08.545Z,2.30
2023-08-08T00:30:37.634Z,2.10
2023-08-08T00:33:07.038Z,2.30
2023-08-08T00:35:36.189Z,2.30
2023-08-08T00:38:06.481Z,2.20
2023-08-08T00:40:35.547Z,2.10
2023-08-08T00:43:04.749Z,2.10
2023-08-08T00:45:33.975Z,2.00
2023-08-08T00:48:03.435Z,1.80
2023-08-08T00:50:34.268Z,2.10
2023-08-08T00:53:03.299Z,2.00
2023-08-08T00:55:32.436Z,1.60
2023-08-08T00:58:01.574Z,1.80
2023-08-08T01:00:31.971Z,1.90
2023-08-08T01:03:01.025Z,1.80
2023-08-08T01:05:34.976Z,1.70
2023-08-08T01:08:06.332Z,1.80
2023-08-08T01:10:42.266Z,2.10
2023-08-08T01:13:14.496Z,2.00
2023-08-08T01:15:43.600Z,1.70
2023-08-08T01:18:13.557Z,1.60
2023-08-08T01:20:43.093Z,1.60
2023-08-08T01:23:14.969Z,1.70
2023-08-08T01:28:11.970Z,1.50
2023-08-08T01:30:41.611Z,1.50
2023-08-08T01:33:10.738Z,1.50
2023-08-08T01:35:41.597Z,1.40
2023-08-08T01:38:14.555Z,1.60
2023-08-08T01:40:44.845Z,1.40
2023-08-08T01:43:15.379Z,1.50
2023-08-08T01:45:46.032Z,1.40
2023-08-08T01:48:15.044Z,1.40
2023-08-08T01:50:44.210Z,1.30
2023-08-08T01:53:13.625Z,1.60
2023-08-08T01:55:42.710Z,1.40
2023-08-08T01:58:11.788Z,1.60
2023-08-08T02:00:42.190Z,1.30
2023-08-08T02:03:11.566Z,1.60
2023-08-08T02:05:40.831Z,1.60
2023-08-08T02:08:10.753Z,1.60
2023-08-08T02:10:39.911Z,1.60
2023-08-08T02:13:08.960Z,1.30
2023-08-08T02:15:38.056Z,1.40
2023-08-08T02:18:08.698Z,1.50
2023-08-08T02:20:37.787Z,1.60
2023-08-08T02:23:07.787Z,1.40
2023-08-08T02:25:36.899Z,1.40
2023-08-08T02:28:06.443Z,1.70
2023-08-08T02:30:35.529Z,1.50
2023-08-08T02:33:04.808Z,1.70
2023-08-08T02:35:34.003Z,1.60
2023-08-08T02:38:03.113Z,1.60
2023-08-08T02:40:32.231Z,1.40
2023-08-08T02:43:01.449Z,1.70
2023-08-08T02:45:30.486Z,1.80
2023-08-08T02:47:59.624Z,1.60
2023-08-08T02:50:28.754Z,1.50
2023-08-08T02:52:59.204Z,1.60
2023-08-08T02:55:29.769Z,1.50
2023-08-08T02:57:59.660Z,1.40
2023-08-08T03:00:28.797Z,1.50
2023-08-08T03:02:57.974Z,1.50
2023-08-08T03:05:27.518Z,2.80
2023-08-08T03:07:56.775Z,1.60
2023-08-08T03:10:27.338Z,1.60
2023-08-08T03:12:56.418Z,1.50
2023-08-08T03:15:25.595Z,1.50
2023-08-08T03:17:54.870Z,1.40
2023-08-08T03:20:25.152Z,2.00
2023-08-08T03:22:54.288Z,1.50
2023-08-08T03:25:23.869Z,1.70
2023-08-08T03:27:53.398Z,1.40
2023-08-08T03:30:23.420Z,1.50
2023-08-08T03:32:52.642Z,1.40
2023-08-08T03:35:21.839Z,1.50
2023-08-08T03:37:50.973Z,1.80
2023-08-08T03:40:20.256Z,1.40
2023-08-08T03:42:49.394Z,1.40
2023-08-08T03:45:18.476Z,1.30
2023-08-08T03:47:48.290Z,1.70
2023-08-08T03:50:17.413Z,1.50
2023-08-08T03:52:46.514Z,1.80
2023-08-08T03:55:15.654Z,1.30
2023-08-08T03:57:45.814Z,1.40
2023-08-08T04:00:15.691Z,1.60
2023-08-08T04:02:45.020Z,1.60
2023-08-08T04:05:14.586Z,1.40
2023-08-08T04:07:43.786Z,1.60
2023-08-08T04:10:14.452Z,1.50
2023-08-08T04:12:43.555Z,1.50
2023-08-08T04:15:12.920Z,1.80
2023-08-08T04:17:42.552Z,1.40
2023-08-08T04:20:12.828Z,1.70
2023-08-08T04:22:41.912Z,1.70
2023-08-08T04:25:11.051Z,1.60
2023-08-08T04:27:40.303Z,1.50
2023-08-08T04:30:10.389Z,1.60
2023-08-08T04:32:39.537Z,1.30
2023-08-08T04:35:08.930Z,1.60
2023-08-08T04:37:38.040Z,1.60
2023-08-08T04:40:09.693Z,1.50
2023-08-08T04:42:38.880Z,1.30
2023-08-08T04:45:09.485Z,1.50
2023-08-08T04:47:38.635Z,1.30
2023-08-08T04:50:08.255Z,1.50
2023-08-08T04:52:37.330Z,1.70
2023-08-08T04:55:06.856Z,1.30
2023-08-08T04:57:35.928Z,1.40
2023-08-08T05:00:09.967Z,1.50
2023-08-08T05:02:44.979Z,1.50
2023-08-08T05:05:14.606Z,1.80
2023-08-08T05:07:44.826Z,1.80
2023-08-08T05:10:14.156Z,1.30
2023-08-08T05:12:44.184Z,1.40
2023-08-08T05:15:13.420Z,1.50
2023-08-08T05:17:42.497Z,1.50
2023-08-08T05:20:13.316Z,1.40
2023-08-08T05:22:42.423Z,1.40
2023-08-08T05:25:11.980Z,1.60
2023-08-08T05:27:41.386Z,1.50
2023-08-08T05:30:11.147Z,1.80
2023-08-08T05:32:40.225Z,1.40
2023-08-08T05:35:10.033Z,1.60
2023-08-08T05:37:39.267Z,1.40
2023-08-08T05:40:09.862Z,2.00
2023-08-08T05:42:38.945Z,1.50
2023-08-08T05:45:08.988Z,1.40
2023-08-08T05:47:38.036Z,1.70
2023-08-08T05:50:07.996Z,1.70
2023-08-08T05:52:37.068Z,1.50
2023-08-08T05:55:06.718Z,1.50
2023-08-08T05:57:35.924Z,1.30
2023-08-08T06:00:06.498Z,1.50
2023-08-08T06:02:41.921Z,1.60
2023-08-08T06:05:12.772Z,1.50
2023-08-08T06:07:41.820Z,1.60
2023-08-08T06:10:11.919Z,1.60
2023-08-08T06:12:41.178Z,1.50
2023-08-08T06:15:11.289Z,1.50
2023-08-08T06:17:40.441Z,1.40
2023-08-08T06:20:11.833Z,1.30
2023-08-08T06:22:41.594Z,1.60
2023-08-08T06:25:12.256Z,1.40
2023-08-08T06:27:41.541Z,1.60
2023-08-08T06:30:11.200Z,1.30
2023-08-08T06:32:40.343Z,1.80
2023-08-08T06:35:10.795Z,1.70
2023-08-08T06:37:42.163Z,1.50
2023-08-08T06:40:12.523Z,1.50
2023-08-08T06:42:41.626Z,1.20
2023-08-08T06:45:11.375Z,1.30
2023-08-08T06:47:40.477Z,1.60
2023-08-08T06:50:11.349Z,1.60
2023-08-08T06:52:40.568Z,1.60
2023-08-08T06:55:10.357Z,1.70
2023-08-08T06:57:39.476Z,1.40
2023-08-08T07:00:09.704Z,1.40
2023-08-08T07:02:38.906Z,1.60
2023-08-08T07:05:08.776Z,1.60
2023-08-08T07:07:37.864Z,1.40
2023-08-08T07:10:08.100Z,1.70
2023-08-08T07:12:37.475Z,1.50
2023-08-08T07:15:08.362Z,1.50
2023-08-08T07:17:38.042Z,1.60
2023-08-08T07:20:13.863Z,1.60
2023-08-08T07:22:42.911Z,1.50
2023-08-08T07:25:12.575Z,1.50
2023-08-08T07:27:41.627Z,1.60
2023-08-08T07:30:12.370Z,1.60
2023-08-08T07:32:41.410Z,1.70
2023-08-08T07:35:12.040Z,1.40
2023-08-08T07:37:41.380Z,1.50
2023-08-08T07:40:19.120Z,1.40
2023-08-08T07:42:48.831Z,1.70
2023-08-08T07:45:18.224Z,1.50
2023-08-08T07:47:47.919Z,1.60
2023-08-08T07:50:17.192Z,1.70
2023-08-08T07:52:46.249Z,1.80
2023-08-08T07:55:15.425Z,1.90
2023-08-08T07:57:44.566Z,1.80
2023-08-08T08:00:14.483Z,2.00
2023-08-08T08:02:44.860Z,2.00
2023-08-08T08:05:14.873Z,2.00
2023-08-08T08:07:44.078Z,2.30
2023-08-08T08:10:15.274Z,2.30
2023-08-08T08:12:53.243Z,2.20
2023-08-08T08:15:22.314Z,2.10
2023-08-08T08:17:51.494Z,2.30
2023-08-08T08:20:20.570Z,1.80
2023-08-08T08:22:49.693Z,2.10
2023-08-08T08:25:18.918Z,2.40
2023-08-08T08:27:48.087Z,2.20
2023-08-08T08:30:17.741Z,1.90
2023-08-08T08:32:47.032Z,2.50
2023-08-08T08:35:17.857Z,2.20
2023-08-08T08:37:47.225Z,2.50
2023-08-08T08:40:17.061Z,2.40
2023-08-08T08:42:47.290Z,2.30
2023-08-08T08:45:16.500Z,2.30
2023-08-08T08:47:47.957Z,2.20
2023-08-08T08:50:18.044Z,2.10
2023-08-08T08:52:47.700Z,2.20
2023-08-08T08:55:17.036Z,2.70
2023-08-08T08:57:47.091Z,2.20
2023-08-08T09:00:19.139Z,2.50
2023-08-08T09:02:49.615Z,2.40
2023-08-08T09:05:22.916Z,2.40
2023-08-08T09:07:52.625Z,2.50
2023-08-08T09:10:22.976Z,2.20
2023-08-08T09:12:52.215Z,2.80
2023-08-08T09:15:21.725Z,2.40
2023-08-08T09:17:51.493Z,2.70
2023-08-08T09:20:20.694Z,2.70
2023-08-08T09:22:50.684Z,2.30
2023-08-08T09:25:19.801Z,2.40
2023-08-08T09:27:49.202Z,3.00
2023-08-08T09:30:18.256Z,2.30
2023-08-08T09:32:47.359Z,2.20
2023-08-08T09:35:16.760Z,2.00
2023-08-08T09:37:45.951Z,2.20
2023-08-08T09:40:15.137Z,2.20
2023-08-08T09:42:44.304Z,2.00
2023-08-08T09:45:13.838Z,2.30
2023-08-08T09:47:46.214Z,2.30
2023-08-08T09:50:15.398Z,1.90
2023-08-08T09:52:45.356Z,1.70
2023-08-08T09:55:14.983Z,1.70
2023-08-08T09:57:46.435Z,1.70
2023-08-08T10:00:18.745Z,1.70
2023-08-08T10:02:48.109Z,1.70
2023-08-08T10:05:18.736Z,1.90
2023-08-08T10:07:47.830Z,1.80
2023-08-08T10:10:20.138Z,1.80
2023-08-08T10:12:50.258Z,2.00
2023-08-08T10:15:19.675Z,1.70
2023-08-08T10:17:55.494Z,1.90
2023-08-08T10:20:26.247Z,1.80
2023-08-08T10:22:59.089Z,1.60
2023-08-08T10:25:30.679Z,1.70
2023-08-08T10:28:24.604Z,1.60
2023-08-08T10:30:58.054Z,2.00
2023-08-08T10:33:28.396Z,1.90
2023-08-08T10:35:59.178Z,1.70
2023-08-08T10:38:28.900Z,1.70
2023-08-08T10:41:04.781Z,1.60
2023-08-08T10:43:33.893Z,1.70
2023-08-08T10:46:13.600Z,2.00
2023-08-08T10:48:52.989Z,1.60
2023-08-08T10:51:22.505Z,1.80
2023-08-08T10:53:54.579Z,1.70
2023-08-08T10:56:25.055Z,1.70
2023-08-08T10:58:54.102Z,1.90
2023-08-08T11:01:27.366Z,1.70
2023-08-08T11:03:56.746Z,1.80
2023-08-08T11:06:25.884Z,2.00
2023-08-08T11:08:55.859Z,1.70
2023-08-08T11:11:25.214Z,1.70
2023-08-08T11:13:54.766Z,1.80
2023-08-08T11:16:23.894Z,1.80
2023-08-08T11:19:00.083Z,2.00
2023-08-08T11:21:29.233Z,2.10
2023-08-08T11:24:00.813Z,1.80
2023-08-08T11:28:58.325Z,1.60
2023-08-08T11:31:27.463Z,1.90
2023-08-08T11:33:56.939Z,1.80
2023-08-08T11:36:26.058Z,1.90
2023-08-08T11:38:55.984Z,1.90
2023-08-08T11:41:27.243Z,2.40
2023-08-08T11:43:58.229Z,1.70
2023-08-08T11:46:28.400Z,2.00
2023-08-08T11:49:04.698Z,1.80
2023-08-08T11:51:34.559Z,2.00
2023-08-08T11:54:04.632Z,1.90
2023-08-08T11:56:35.255Z,1.90
2023-08-08T11:59:07.074Z,2.10
2023-08-08T12:01:36.400Z,2.20
2023-08-08T12:04:08.966Z,2.00
2023-08-08T12:06:41.281Z,1.80
2023-08-08T12:09:13.169Z,1.80
2023-08-08T12:11:42.418Z,1.80
2023-08-08T12:14:11.673Z,1.90
2023-08-08T12:16:41.387Z,1.90
2023-08-08T12:19:12.666Z,1.90
2023-08-08T12:21:42.069Z,1.90
2023-08-08T12:24:11.098Z,1.90
2023-08-08T12:26:40.431Z,1.80
2023-08-08T12:29:09.512Z,1.80
2023-08-08T12:31:38.602Z,1.60
2023-08-08T12:34:07.703Z,1.70
2023-08-08T12:36:36.833Z,1.70
2023-08-08T12:39:06.444Z,1.80
2023-08-08T12:41:35.536Z,1.60
2023-08-08T12:44:04.810Z,1.40
2023-08-08T12:46:33.954Z,1.60
2023-08-08T12:49:03.006Z,1.50
2023-08-08T12:51:32.185Z,1.70
2023-08-08T12:54:01.330Z,1.70
2023-08-08T12:56:30.451Z,1.50
2023-08-08T12:58:59.505Z,1.60
2023-08-08T13:01:28.623Z,1.60
2023-08-08T13:04:18.152Z,1.50
2023-08-08T13:06:47.142Z,1.80
2023-08-08T13:09:17.087Z,1.70
2023-08-08T13:11:46.365Z,1.30
2023-08-08T13:14:15.507Z,1.60
2023-08-08T13:16:44.914Z,1.60
2023-08-08T13:19:14.016Z,1.60
2023-08-08T13:21:43.079Z,1.40
2023-08-08T13:24:13.998Z,1.70
2023-08-08T13:26:43.288Z,1.50
2023-08-08T13:29:13.743Z,1.50
2023-08-08T13:31:43.124Z,1.50
2023-08-08T13:34:12.268Z,1.50
2023-08-08T13:36:41.332Z,1.60
2023-08-08T13:39:14.673Z,1.70
2023-08-08T13:41:43.772Z,1.50
2023-08-08T13:44:12.824Z,1.60
2023-08-08T13:46:41.868Z,1.60
2023-08-08T13:49:11.671Z,1.50
2023-08-08T13:51:42.873Z,1.50
2023-08-08T13:56:39.897Z,1.40
2023-08-08T13:59:09.018Z,1.50
2023-08-08T14:01:38.268Z,1.60
2023-08-08T14:04:08.177Z,1.60
2023-08-08T14:06:37.300Z,1.50
2023-08-08T14:09:06.624Z,1.50
2023-08-08T14:11:36.296Z,1.50
2023-08-08T14:14:05.739Z,1.60
2023-08-08T14:16:34.924Z,1.60
2023-08-08T14:19:04.816Z,2.00
2023-08-08T14:21:33.858Z,1.80
2023-08-08T14:24:04.846Z,1.80
2023-08-08T14:26:34.035Z,1.70
2023-08-08T14:29:03.093Z,1.80
2023-08-08T14:31:36.252Z,1.50
2023-08-08T14:34:09.821Z,1.40
2023-08-08T14:36:38.994Z,1.40
2023-08-08T14:39:08.109Z,1.60
2023-08-08T14:41:37.217Z,1.70
2023-08-08T14:44:06.695Z,1.80
2023-08-08T14:46:37.979Z,1.60
2023-08-08T14:49:07.543Z,1.50
2023-08-08T14:51:36.690Z,2.10
2023-08-08T14:54:06.207Z,1.70
2023-08-08T14:56:35.300Z,1.60
2023-08-08T14:59:04.927Z,1.70
2023-08-08T15:01:34.085Z,1.30
2023-08-08T15:04:06.855Z,1.50
2023-08-08T15:06:38.207Z,1.80
2023-08-08T15:09:07.293Z,1.40
2023-08-08T15:11:36.508Z,1.60
2023-08-08T15:14:05.804Z,1.70
2023-08-08T15:16:35.156Z,1.40
2023-08-08T15:19:05.077Z,1.60
2023-08-08T15:21:34.246Z,1.70
2023-08-08T15:24:03.433Z,1.50
2023-08-08T15:26:32.484Z,1.50
2023-08-08T15:29:02.114Z,1.80
2023-08-08T15:31:31.320Z,1.70
2023-08-08T15:34:01.613Z,1.80
2023-08-08T15:36:30.729Z,2.00
2023-08-08T15:38:59.833Z,1.80
2023-08-08T15:41:28.994Z,1.70
2023-08-08T15:43:58.180Z,1.80
2023-08-08T15:46:28.171Z,1.70
2023-08-08T15:48:57.238Z,1.70
2023-08-08T15:51:26.311Z,1.90
2023-08-08T15:53:55.441Z,1.90
2023-08-08T15:56:24.622Z,1.60
2023-08-08T15:58:53.744Z,1.60
2023-08-08T16:01:22.929Z,1.60
2023-08-08T16:03:52.088Z,1.80
2023-08-08T16:06:21.328Z,1.70
2023-08-08T16:08:50.516Z,1.80
2023-08-08T16:11:19.731Z,1.80
2023-08-08T16:13:48.943Z,1.90
2023-08-08T16:16:18.124Z,1.90
2023-08-08T16:18:47.269Z,2.10
2023-08-08T16:21:16.507Z,1.40
2023-08-08T16:23:45.672Z,1.70
2023-08-08T16:26:16.291Z,1.70
2023-08-08T16:28:45.606Z,1.80
2023-08-08T16:31:14.729Z,1.70
2023-08-08T16:33:44.334Z,1.60
2023-08-08T16:36:15.806Z,1.70
2023-08-08T16:38:44.873Z,1.70
2023-08-08T16:41:14.058Z,1.50
2023-08-08T16:43:43.307Z,1.70
2023-08-08T16:46:12.470Z,1.80
2023-08-08T16:48:41.722Z,1.90
2023-08-08T16:51:11.557Z,1.90
2023-08-08T16:53:40.764Z,2.10
2023-08-08T16:56:12.110Z,1.70
2023-08-08T16:58:42.228Z,1.90
2023-08-08T17:01:13.562Z,1.60
2023-08-08T17:03:42.776Z,1.60
2023-08-08T17:06:12.203Z,1.70
2023-08-08T17:08:41.541Z,2.10
2023-08-08T17:11:10.749Z,1.80
2023-08-08T17:13:39.884Z,1.80
2023-08-08T17:16:09.143Z,1.90
2023-08-08T17:18:39.106Z,1.40
2023-08-08T17:21:08.567Z,2.00
2023-08-08T17:23:37.658Z,1.50
2023-08-08T17:26:06.949Z,1.50
2023-08-08T17:28:36.060Z,1.70
2023-08-08T17:31:05.581Z,1.60
2023-08-08T17:33:35.554Z,1.50
2023-08-08T17:36:04.826Z,1.50
2023-08-08T17:38:33.947Z,1.80
2023-08-08T17:41:03.035Z,1.80
2023-08-08T17:43:32.462Z,1.70
2023-08-08T17:46:01.657Z,1.50
2023-08-08T17:48:30.844Z,1.70
2023-08-08T17:51:00.350Z,1.60
2023-08-08T17:53:30.563Z,2.00
2023-08-08T17:55:59.677Z,1.70
2023-08-08T17:58:28.729Z,2.10
2023-08-08T18:00:57.813Z,1.70
2023-08-08T18:03:26.959Z,1.90
2023-08-08T18:05:56.066Z,1.50
2023-08-08T18:08:25.142Z,1.80
2023-08-08T18:10:54.329Z,1.90
2023-08-08T18:13:23.356Z,1.90
2023-08-08T18:15:54.432Z,1.60
2023-08-08T18:18:27.989Z,1.70
2023-08-08T18:20:57.085Z,1.50
2023-08-08T18:23:26.131Z,1.70
2023-08-08T18:25:55.187Z,1.60
2023-08-08T18:28:24.233Z,1.50
2023-08-08T18:30:53.279Z,1.50
2023-08-08T18:33:22.325Z,1.80
2023-08-08T18:35:51.449Z,1.70
2023-08-08T18:38:20.541Z,1.50
2023-08-08T18:40:49.587Z,1.50
2023-08-08T18:43:18.667Z,1.50
2023-08-08T18:45:48.086Z,1.90
2023-08-08T18:48:17.165Z,1.90
2023-08-08T18:50:47.400Z,1.50
2023-08-08T18:53:16.661Z,1.70
2023-08-08T18:55:46.605Z,1.70
2023-08-08T18:58:15.649Z,1.80
2023-08-08T19:00:44.727Z,1.70
2023-08-08T19:03:14.014Z,1.60
2023-08-08T19:05:43.175Z,1.40
2023-08-08T19:08:12.472Z,2.70
2023-08-08T19:10:41.539Z,1.40
2023-08-08T19:13:10.593Z,1.60
2023-08-08T19:15:39.689Z,1.60
2023-08-08T19:18:08.816Z,1.80
2023-08-08T19:20:37.944Z,1.60
2023-08-08T19:23:08.806Z,1.40
2023-08-08T19:25:37.889Z,1.50
2023-08-08T19:28:07.473Z,1.30
2023-08-08T19:30:36.808Z,1.70
2023-08-08T19:33:07.104Z,1.60
2023-08-08T19:35:38.887Z,1.70
2023-08-08T19:38:08.891Z,2.00
2023-08-08T19:40:38.376Z,1.60
2023-08-08T19:43:11.729Z,1.80
2023-08-08T19:45:41.734Z,1.60
2023-08-08T19:48:15.407Z,1.80
2023-08-08T19:51:00.157Z,1.70
2023-08-08T19:53:35.262Z,1.60
2023-08-08T19:56:23.656Z,1.50
2023-08-08T20:08:55.906Z,1.40
2023-08-08T20:31:56.962Z,1.70
2023-08-08T20:34:29.416Z,1.70
2023-08-08T20:36:59.503Z,1.50
2023-08-08T20:39:29.672Z,1.70
2023-08-08T20:41:58.931Z,1.50
2023-08-08T20:44:28.451Z,1.50
2023-08-08T20:46:57.625Z,1.50
2023-08-08T20:49:26.732Z,1.80
2023-08-08T20:51:55.889Z,1.70
2023-08-08T20:54:24.969Z,1.40
2023-08-08T20:56:59.296Z,1.60
2023-08-08T20:59:46.699Z,1.70
2023-08-08T21:02:16.879Z,1.40
2023-08-08T21:05:01.987Z,1.50
2023-08-08T21:07:31.103Z,1.70
2023-08-08T21:10:00.237Z,1.40
2023-08-08T21:12:29.515Z,1.60
2023-08-08T21:15:00.990Z,1.40
2023-08-08T21:17:30.735Z,1.30
2023-08-08T21:20:00.767Z,1.70
2023-08-08T21:22:30.004Z,1.60
2023-08-08T21:24:59.133Z,1.50
2023-08-08T21:27:28.537Z,1.60
2023-08-08T21:29:57.637Z,1.50
2023-08-08T21:32:26.850Z,1.30
2023-08-08T21:34:58.378Z,1.50
2023-08-08T21:37:30.379Z,1.60
2023-08-08T21:39:59.956Z,1.40
2023-08-08T21:42:29.022Z,1.60
2023-08-08T21:44:58.061Z,1.60
2023-08-08T21:47:27.177Z,1.60
2023-08-08T21:49:56.339Z,1.40
2023-08-08T21:52:25.411Z,1.50
2023-08-08T21:54:54.503Z,1.30
2023-08-08T21:57:23.644Z,1.50
2023-08-08T21:59:52.816Z,1.50
2023-08-08T22:02:22.739Z,1.30
2023-08-08T22:04:52.297Z,1.40
2023-08-08T22:07:21.426Z,1.50
2023-08-08T22:09:50.866Z,1.30
2023-08-08T22:12:20.073Z,1.40
2023-08-08T22:14:49.265Z,1.70
2023-08-08T22:17:18.317Z,1.60
2023-08-08T22:19:47.464Z,1.50
2023-08-08T22:22:16.531Z,1.50
2023-08-08T22:24:45.792Z,1.40
2023-08-08T22:27:14.931Z,1.50
2023-08-08T22:29:44.379Z,1.50
2023-08-08T22:32:13.450Z,1.40
2023-08-08T22:34:42.556Z,1.50
2023-08-08T22:37:11.627Z,1.30
2023-08-08T22:39:40.755Z,1.30
2023-08-08T22:42:10.007Z,1.30
2023-08-08T22:44:39.116Z,1.70
2023-08-08T22:47:08.462Z,1.30
2023-08-08T22:49:37.547Z,1.50
2023-08-08T22:52:07.023Z,1.60
2023-08-08T22:54:36.118Z,1.60
2023-08-08T22:57:05.501Z,1.90
2023-08-08T22:59:34.700Z,1.40
2023-08-08T23:02:04.199Z,1.40
2023-08-08T23:04:33.423Z,1.40
2023-08-08T23:07:02.991Z,1.40
2023-08-08T23:09:32.414Z,1.50
2023-08-08T23:12:01.991Z,1.30
2023-08-08T23:14:31.253Z,1.50
2023-08-08T23:17:00.733Z,1.40
2023-08-08T23:19:30.169Z,1.50
2023-08-08T23:21:59.545Z,1.20
2023-08-08T23:24:28.624Z,1.60
2023-08-08T23:26:57.897Z,1.40
2023-08-08T23:29:27.103Z,1.50
2023-08-08T23:31:56.323Z,1.70
2023-08-08T23:34:25.515Z,1.40
2023-08-08T23:36:54.772Z,1.50
2023-08-08T23:39:23.942Z,1.50
2023-08-08T23:41:53.564Z,1.70
2023-08-08T23:44:22.751Z,1.50
2023-08-08T23:46:51.971Z,1.60
2023-08-08T23:49:21.223Z,1.40
2023-08-08T23:51:50.850Z,1.50
2023-08-08T23:54:20.472Z,1.30
2023-08-08T23:56:49.560Z,1.40
2023-08-08T23:59:19.040Z,1.30
